< < Back
Terminal Aerodrome Forecast


Current Version              Previous Versions:   1  2  3  4  5  6  7  8  9  

Terminal Aerodrome Forecast

911
FTUS42 KFFC 010921 AAC
TAFCSG
TAF AMD
KCSG 010921Z 0109/0206 22004KT P6SM SCT008 BKN012
      TEMPO 0109/0112 5SM BR BKN008
     FM011400 26004KT P6SM FEW040
     FM011800 27005KT P6SM SCT050
     FM012300 20003KT P6SM FEW250
     FM020200 00000KT P6SM FEW250=



Latest METAR

120
SAUS70 KWBC 011756
MTRCSG
METAR KCSG 011751Z VRB06KT 10SM SCT030 32/18 A3001 RMK AO2 SLP157
T03220178 10322 20233 58013


USA.gov is the U.S. government's official web portal to all federal, state and local government web resources and services.